sensor_id;sensor_type;location;lat;lon;timestamp;temperature;humidity
1391;DHT22;690;51.454;7.194;2024-02-21T00:01:15;7.10;1.00
1391;DHT22;690;51.454;7.194;2024-02-21T00:03:42;7.10;1.00
1391;DHT22;690;51.454;7.194;2024-02-21T00:06:09;7.10;1.00
1391;DHT22;690;51.454;7.194;2024-02-21T00:08:37;7.20;1.00
1391;DHT22;690;51.454;7.194;2024-02-21T00:11:04;7.20;1.00
1391;DHT22;690;51.454;7.194;2024-02-21T00:13:31;7.20;1.00
1391;DHT22;690;51.454;7.194;2024-02-21T00:15:59;7.20;1.00
1391;DHT22;690;51.454;7.194;2024-02-21T00:18:26;7.10;1.00
1391;DHT22;690;51.454;7.194;2024-02-21T00:20:53;7.10;1.00
1391;DHT22;690;51.454;7.194;2024-02-21T00:23:20;7.10;1.00
1391;DHT22;690;51.454;7.194;2024-02-21T00:25:48;7.10;1.00
1391;DHT22;690;51.454;7.194;2024-02-21T00:28:15;7.10;1.00
1391;DHT22;690;51.454;7.194;2024-02-21T00:30:42;7.00;1.00
1391;DHT22;690;51.454;7.194;2024-02-21T00:33:09;7.10;1.00
1391;DHT22;690;51.454;7.194;2024-02-21T00:35:36;7.10;1.00
1391;DHT22;690;51.454;7.194;2024-02-21T00:38:03;7.00;1.00
1391;DHT22;690;51.454;7.194;2024-02-21T00:40:30;7.10;1.00
1391;DHT22;690;51.454;7.194;2024-02-21T00:42:58;7.10;1.00
1391;DHT22;690;51.454;7.194;2024-02-21T00:45:25;7.10;1.00
1391;DHT22;690;51.454;7.194;2024-02-21T00:47:52;7.10;1.00
1391;DHT22;690;51.454;7.194;2024-02-21T00:50:19;7.10;1.00
1391;DHT22;690;51.454;7.194;2024-02-21T00:52:46;7.10;1.00
1391;DHT22;690;51.454;7.194;2024-02-21T00:55:14;7.00;1.00
1391;DHT22;690;51.454;7.194;2024-02-21T00:57:41;7.00;1.00
1391;DHT22;690;51.454;7.194;2024-02-21T01:00:10;7.00;1.00
1391;DHT22;690;51.454;7.194;2024-02-21T01:02:37;7.00;1.00
1391;DHT22;690;51.454;7.194;2024-02-21T01:05:04;7.00;1.00
1391;DHT22;690;51.454;7.194;2024-02-21T01:07:31;7.00;1.00
1391;DHT22;690;51.454;7.194;2024-02-21T01:09:58;7.00;1.00
1391;DHT22;690;51.454;7.194;2024-02-21T01:12:25;7.00;1.00
1391;DHT22;690;51.454;7.194;2024-02-21T01:14:52;6.90;1.00
1391;DHT22;690;51.454;7.194;2024-02-21T01:17:20;6.90;1.00
1391;DHT22;690;51.454;7.194;2024-02-21T01:19:47;6.90;3.60
1391;DHT22;690;51.454;7.194;2024-02-21T01:22:14;6.90;1.30
1391;DHT22;690;51.454;7.194;2024-02-21T01:24:41;7.00;1.00
1391;DHT22;690;51.454;7.194;2024-02-21T01:27:08;6.90;4.10
1391;DHT22;690;51.454;7.194;2024-02-21T01:29:35;6.90;5.20
1391;DHT22;690;51.454;7.194;2024-02-21T01:32:02;6.90;1.00
1391;DHT22;690;51.454;7.194;2024-02-21T01:34:30;6.90;1.00
1391;DHT22;690;51.454;7.194;2024-02-21T01:36:57;6.90;1.00
1391;DHT22;690;51.454;7.194;2024-02-21T01:39:24;6.90;1.00
1391;DHT22;690;51.454;7.194;2024-02-21T01:41:51;6.90;1.00
1391;DHT22;690;51.454;7.194;2024-02-21T01:44:18;6.80;1.00
1391;DHT22;690;51.454;7.194;2024-02-21T01:46:45;6.80;1.00
1391;DHT22;690;51.454;7.194;2024-02-21T01:49:12;6.70;8.00
1391;DHT22;690;51.454;7.194;2024-02-21T01:51:40;6.70;16.70
1391;DHT22;690;51.454;7.194;2024-02-21T01:54:07;6.70;26.50
1391;DHT22;690;51.454;7.194;2024-02-21T01:56:35;6.70;39.20
1391;DHT22;690;51.454;7.194;2024-02-21T01:59:01;6.80;42.30
1391;DHT22;690;51.454;7.194;2024-02-21T02:01:29;6.80;42.40
1391;DHT22;690;51.454;7.194;2024-02-21T02:03:57;6.80;38.90
1391;DHT22;690;51.454;7.194;2024-02-21T02:06:25;6.80;37.30
1391;DHT22;690;51.454;7.194;2024-02-21T02:08:54;6.80;40.70
1391;DHT22;690;51.454;7.194;2024-02-21T02:11:21;6.80;36.20
1391;DHT22;690;51.454;7.194;2024-02-21T02:13:48;6.80;40.00
1391;DHT22;690;51.454;7.194;2024-02-21T02:16:15;6.80;46.40
1391;DHT22;690;51.454;7.194;2024-02-21T02:18:41;6.80;44.60
1391;DHT22;690;51.454;7.194;2024-02-21T02:21:13;6.80;53.70
1391;DHT22;690;51.454;7.194;2024-02-21T02:23:42;6.80;60.20
1391;DHT22;690;51.454;7.194;2024-02-21T02:26:09;6.80;60.90
1391;DHT22;690;51.454;7.194;2024-02-21T02:28:36;6.80;60.50
1391;DHT22;690;51.454;7.194;2024-02-21T02:31:03;6.80;51.60
1391;DHT22;690;51.454;7.194;2024-02-21T02:33:30;6.80;67.50
1391;DHT22;690;51.454;7.194;2024-02-21T02:35:57;6.80;66.70
1391;DHT22;690;51.454;7.194;2024-02-21T02:38:24;6.80;53.70
1391;DHT22;690;51.454;7.194;2024-02-21T02:40:52;6.80;56.70
1391;DHT22;690;51.454;7.194;2024-02-21T02:43:19;6.70;47.60
1391;DHT22;690;51.454;7.194;2024-02-21T02:45:46;6.70;53.90
1391;DHT22;690;51.454;7.194;2024-02-21T02:48:13;6.60;60.80
1391;DHT22;690;51.454;7.194;2024-02-21T02:50:40;6.60;57.90
1391;DHT22;690;51.454;7.194;2024-02-21T02:53:07;6.60;76.10
1391;DHT22;690;51.454;7.194;2024-02-21T02:55:34;6.50;96.20
1391;DHT22;690;51.454;7.194;2024-02-21T02:58:03;6.50;99.90
1391;DHT22;690;51.454;7.194;2024-02-21T03:00:30;6.50;99.90
1391;DHT22;690;51.454;7.194;2024-02-21T03:03:01;6.50;99.90
1391;DHT22;690;51.454;7.194;2024-02-21T03:05:29;6.50;99.90
1391;DHT22;690;51.454;7.194;2024-02-21T03:07:56;6.50;99.90
1391;DHT22;690;51.454;7.194;2024-02-21T03:10:24;6.50;99.90
1391;DHT22;690;51.454;7.194;2024-02-21T03:12:51;6.50;99.90
1391;DHT22;690;51.454;7.194;2024-02-21T03:15:20;6.50;99.90
1391;DHT22;690;51.454;7.194;2024-02-21T03:17:47;6.50;99.90
1391;DHT22;690;51.454;7.194;2024-02-21T03:20:15;6.60;99.90
1391;DHT22;690;51.454;7.194;2024-02-21T03:22:43;6.60;99.90
1391;DHT22;690;51.454;7.194;2024-02-21T03:25:10;6.70;99.90
1391;DHT22;690;51.454;7.194;2024-02-21T03:27:38;6.70;99.90
1391;DHT22;690;51.454;7.194;2024-02-21T03:30:05;6.70;99.90
1391;DHT22;690;51.454;7.194;2024-02-21T03:32:34;6.70;99.90
1391;DHT22;690;51.454;7.194;2024-02-21T03:35:01;6.70;99.90
1391;DHT22;690;51.454;7.194;2024-02-21T03:37:28;6.70;99.90
1391;DHT22;690;51.454;7.194;2024-02-21T03:39:55;6.70;99.90
1391;DHT22;690;51.454;7.194;2024-02-21T03:42:22;6.70;99.90
1391;DHT22;690;51.454;7.194;2024-02-21T03:44:49;6.70;99.90
1391;DHT22;690;51.454;7.194;2024-02-21T03:47:16;6.80;99.90
1391;DHT22;690;51.454;7.194;2024-02-21T03:49:44;6.90;99.90
1391;DHT22;690;51.454;7.194;2024-02-21T03:52:11;6.80;99.90
1391;DHT22;690;51.454;7.194;2024-02-21T03:54:38;6.80;99.90
1391;DHT22;690;51.454;7.194;2024-02-21T03:57:05;6.90;99.90
1391;DHT22;690;51.454;7.194;2024-02-21T03:59:32;6.90;99.90
1391;DHT22;690;51.454;7.194;2024-02-21T04:01:59;6.90;99.90
1391;DHT22;690;51.454;7.194;2024-02-21T04:04:26;6.90;99.90
1391;DHT22;690;51.454;7.194;2024-02-21T04:06:54;6.90;99.90
1391;DHT22;690;51.454;7.194;2024-02-21T04:09:22;6.90;99.90
1391;DHT22;690;51.454;7.194;2024-02-21T04:11:49;6.90;99.90
1391;DHT22;690;51.454;7.194;2024-02-21T04:14:15;6.90;99.90
1391;DHT22;690;51.454;7.194;2024-02-21T04:16:42;6.90;99.90
1391;DHT22;690;51.454;7.194;2024-02-21T04:19:09;6.80;99.90
1391;DHT22;690;51.454;7.194;2024-02-21T04:21:36;6.80;99.90
1391;DHT22;690;51.454;7.194;2024-02-21T04:24:05;6.80;99.90
1391;DHT22;690;51.454;7.194;2024-02-21T04:26:32;6.80;99.90
1391;DHT22;690;51.454;7.194;2024-02-21T04:29:00;6.80;99.90
1391;DHT22;690;51.454;7.194;2024-02-21T04:31:29;6.80;99.90
1391;DHT22;690;51.454;7.194;2024-02-21T04:33:58;6.80;99.90
1391;DHT22;690;51.454;7.194;2024-02-21T04:36:25;6.80;99.90
1391;DHT22;690;51.454;7.194;2024-02-21T04:38:52;6.70;99.90
1391;DHT22;690;51.454;7.194;2024-02-21T04:41:20;6.70;99.90
1391;DHT22;690;51.454;7.194;2024-02-21T04:43:47;6.80;99.90
1391;DHT22;690;51.454;7.194;2024-02-21T04:46:14;6.80;99.90
1391;DHT22;690;51.454;7.194;2024-02-21T04:48:41;6.80;99.90
1391;DHT22;690;51.454;7.194;2024-02-21T04:51:08;6.80;93.20
1391;DHT22;690;51.454;7.194;2024-02-21T04:53:35;6.80;74.70
1391;DHT22;690;51.454;7.194;2024-02-21T04:56:03;6.80;73.70
1391;DHT22;690;51.454;7.194;2024-02-21T04:58:31;6.80;67.00
1391;DHT22;690;51.454;7.194;2024-02-21T05:00:58;6.80;66.70
1391;DHT22;690;51.454;7.194;2024-02-21T05:03:25;6.80;53.50
1391;DHT22;690;51.454;7.194;2024-02-21T05:05:52;6.80;39.80
1391;DHT22;690;51.454;7.194;2024-02-21T05:08:19;6.90;29.60
1391;DHT22;690;51.454;7.194;2024-02-21T05:10:45;6.80;31.60
1391;DHT22;690;51.454;7.194;2024-02-21T05:13:12;6.80;30.40
1391;DHT22;690;51.454;7.194;2024-02-21T05:15:41;6.80;15.40
1391;DHT22;690;51.454;7.194;2024-02-21T05:18:08;6.80;17.10
1391;DHT22;690;51.454;7.194;2024-02-21T05:20:34;6.90;3.10
1391;DHT22;690;51.454;7.194;2024-02-21T05:23:01;6.80;4.60
1391;DHT22;690;51.454;7.194;2024-02-21T05:25:28;6.90;1.00
1391;DHT22;690;51.454;7.194;2024-02-21T05:27:55;6.90;1.00
1391;DHT22;690;51.454;7.194;2024-02-21T05:30:27;6.90;1.00
1391;DHT22;690;51.454;7.194;2024-02-21T05:32:55;7.00;1.00
1391;DHT22;690;51.454;7.194;2024-02-21T05:35:25;7.00;1.00
1391;DHT22;690;51.454;7.194;2024-02-21T05:37:53;7.00;1.00
1391;DHT22;690;51.454;7.194;2024-02-21T05:40:19;7.00;1.00
1391;DHT22;690;51.454;7.194;2024-02-21T05:42:46;7.00;1.00
1391;DHT22;690;51.454;7.194;2024-02-21T05:45:13;7.00;1.00
1391;DHT22;690;51.454;7.194;2024-02-21T05:47:41;7.00;1.00
1391;DHT22;690;51.454;7.194;2024-02-21T05:50:10;7.00;1.00
1391;DHT22;690;51.454;7.194;2024-02-21T05:52:37;7.00;1.00
1391;DHT22;690;51.454;7.194;2024-02-21T05:55:04;7.00;1.00
1391;DHT22;690;51.454;7.194;2024-02-21T05:57:33;7.00;1.00
1391;DHT22;690;51.454;7.194;2024-02-21T05:59:59;7.00;1.00
1391;DHT22;690;51.454;7.194;2024-02-21T06:02:27;7.00;1.00
1391;DHT22;690;51.454;7.194;2024-02-21T06:04:54;7.10;1.00
1391;DHT22;690;51.454;7.194;2024-02-21T06:07:22;7.00;1.00
1391;DHT22;690;51.454;7.194;2024-02-21T06:09:49;7.00;1.00
1391;DHT22;690;51.454;7.194;2024-02-21T06:12:16;7.00;1.00
1391;DHT22;690;51.454;7.194;2024-02-21T06:14:43;7.00;1.00
1391;DHT22;690;51.454;7.194;2024-02-21T06:17:10;7.00;1.00
1391;DHT22;690;51.454;7.194;2024-02-21T06:19:39;7.00;1.00
1391;DHT22;690;51.454;7.194;2024-02-21T06:22:07;7.00;1.00
1391;DHT22;690;51.454;7.194;2024-02-21T06:24:35;7.00;1.00
1391;DHT22;690;51.454;7.194;2024-02-21T06:27:03;7.00;1.00
1391;DHT22;690;51.454;7.194;2024-02-21T06:29:31;7.00;1.00
1391;DHT22;690;51.454;7.194;2024-02-21T06:31:59;7.00;1.00
1391;DHT22;690;51.454;7.194;2024-02-21T06:34:26;7.00;1.00
1391;DHT22;690;51.454;7.194;2024-02-21T06:36:53;7.00;1.00
1391;DHT22;690;51.454;7.194;2024-02-21T06:39:20;7.00;1.00
1391;DHT22;690;51.454;7.194;2024-02-21T06:41:50;7.00;1.00
1391;DHT22;690;51.454;7.194;2024-02-21T06:44:18;7.00;1.00
1391;DHT22;690;51.454;7.194;2024-02-21T06:46:45;7.00;1.00
1391;DHT22;690;51.454;7.194;2024-02-21T06:49:12;7.00;1.00
1391;DHT22;690;51.454;7.194;2024-02-21T06:51:41;7.10;1.00
1391;DHT22;690;51.454;7.194;2024-02-21T06:54:08;7.10;1.00
1391;DHT22;690;51.454;7.194;2024-02-21T06:56:36;7.10;1.00
1391;DHT22;690;51.454;7.194;2024-02-21T06:59:05;7.10;1.00
1391;DHT22;690;51.454;7.194;2024-02-21T07:01:31;7.20;1.00
1391;DHT22;690;51.454;7.194;2024-02-21T07:03:58;7.20;1.00
1391;DHT22;690;51.454;7.194;2024-02-21T07:06:25;7.20;1.00
1391;DHT22;690;51.454;7.194;2024-02-21T07:08:52;7.20;1.00
1391;DHT22;690;51.454;7.194;2024-02-21T07:11:19;7.30;1.00
1391;DHT22;690;51.454;7.194;2024-02-21T07:13:46;7.20;1.00
1391;DHT22;690;51.454;7.194;2024-02-21T07:16:14;7.20;1.00
1391;DHT22;690;51.454;7.194;2024-02-21T07:18:41;7.20;1.00
1391;DHT22;690;51.454;7.194;2024-02-21T07:21:08;7.30;1.00
1391;DHT22;690;51.454;7.194;2024-02-21T07:23:35;7.30;1.00
1391;DHT22;690;51.454;7.194;2024-02-21T07:26:02;7.30;1.00
1391;DHT22;690;51.454;7.194;2024-02-21T07:28:29;7.30;1.00
1391;DHT22;690;51.454;7.194;2024-02-21T07:30:56;7.30;1.00
1391;DHT22;690;51.454;7.194;2024-02-21T07:33:26;7.30;1.00
1391;DHT22;690;51.454;7.194;2024-02-21T07:35:53;7.30;1.00
1391;DHT22;690;51.454;7.194;2024-02-21T07:38:20;7.40;1.00
1391;DHT22;690;51.454;7.194;2024-02-21T07:40:48;7.40;1.00
1391;DHT22;690;51.454;7.194;2024-02-21T07:43:14;7.50;1.00
1391;DHT22;690;51.454;7.194;2024-02-21T07:45:41;7.50;1.00
1391;DHT22;690;51.454;7.194;2024-02-21T07:48:08;7.60;1.00
1391;DHT22;690;51.454;7.194;2024-02-21T07:50:37;7.60;1.00
1391;DHT22;690;51.454;7.194;2024-02-21T07:53:03;7.60;1.00
1391;DHT22;690;51.454;7.194;2024-02-21T07:55:30;7.60;1.00
1391;DHT22;690;51.454;7.194;2024-02-21T07:57:57;7.70;1.00
1391;DHT22;690;51.454;7.194;2024-02-21T08:00:24;7.80;1.00
1391;DHT22;690;51.454;7.194;2024-02-21T08:02:51;7.80;1.00
1391;DHT22;690;51.454;7.194;2024-02-21T08:05:21;7.90;1.00
1391;DHT22;690;51.454;7.194;2024-02-21T08:07:50;7.90;1.00
1391;DHT22;690;51.454;7.194;2024-02-21T08:10:17;7.90;1.00
1391;DHT22;690;51.454;7.194;2024-02-21T08:12:44;7.90;1.00
1391;DHT22;690;51.454;7.194;2024-02-21T08:15:10;7.90;1.00
1391;DHT22;690;51.454;7.194;2024-02-21T08:17:38;7.90;1.00
1391;DHT22;690;51.454;7.194;2024-02-21T08:20:05;7.90;1.00
1391;DHT22;690;51.454;7.194;2024-02-21T08:22:32;8.00;1.00
1391;DHT22;690;51.454;7.194;2024-02-21T08:25:00;8.00;1.00
1391;DHT22;690;51.454;7.194;2024-02-21T08:27:31;8.00;1.00
1391;DHT22;690;51.454;7.194;2024-02-21T08:29:58;8.10;1.00
1391;DHT22;690;51.454;7.194;2024-02-21T08:32:24;8.10;1.00
1391;DHT22;690;51.454;7.194;2024-02-21T08:34:51;8.10;1.00
1391;DHT22;690;51.454;7.194;2024-02-21T08:37:20;8.20;1.00
1391;DHT22;690;51.454;7.194;2024-02-21T08:39:47;8.20;1.00
1391;DHT22;690;51.454;7.194;2024-02-21T08:42:16;8.20;1.00
1391;DHT22;690;51.454;7.194;2024-02-21T08:44:43;8.20;1.00
1391;DHT22;690;51.454;7.194;2024-02-21T08:47:10;8.30;1.00
1391;DHT22;690;51.454;7.194;2024-02-21T08:49:37;8.30;1.00
1391;DHT22;690;51.454;7.194;2024-02-21T08:52:04;8.30;1.00
1391;DHT22;690;51.454;7.194;2024-02-21T08:54:31;8.40;1.00
1391;DHT22;690;51.454;7.194;2024-02-21T08:56:59;8.30;1.00
1391;DHT22;690;51.454;7.194;2024-02-21T08:59:27;8.40;1.00
1391;DHT22;690;51.454;7.194;2024-02-21T09:01:54;8.40;1.00
1391;DHT22;690;51.454;7.194;2024-02-21T09:04:21;8.40;1.00
1391;DHT22;690;51.454;7.194;2024-02-21T09:06:48;8.50;1.00
1391;DHT22;690;51.454;7.194;2024-02-21T09:09:15;8.50;1.00
1391;DHT22;690;51.454;7.194;2024-02-21T09:11:42;8.50;1.00
1391;DHT22;690;51.454;7.194;2024-02-21T09:14:09;8.60;1.00
1391;DHT22;690;51.454;7.194;2024-02-21T09:16:37;8.70;1.00
1391;DHT22;690;51.454;7.194;2024-02-21T09:19:05;8.60;1.00
1391;DHT22;690;51.454;7.194;2024-02-21T09:21:33;8.50;1.00
1391;DHT22;690;51.454;7.194;2024-02-21T09:23:59;8.50;1.00
1391;DHT22;690;51.454;7.194;2024-02-21T09:26:26;8.30;1.00
1391;DHT22;690;51.454;7.194;2024-02-21T09:28:53;8.20;1.00
1391;DHT22;690;51.454;7.194;2024-02-21T09:31:20;8.10;1.00
1391;DHT22;690;51.454;7.194;2024-02-21T09:33:48;8.10;1.00
1391;DHT22;690;51.454;7.194;2024-02-21T09:36:15;8.10;1.00
1391;DHT22;690;51.454;7.194;2024-02-21T09:38:42;8.00;1.00
1391;DHT22;690;51.454;7.194;2024-02-21T09:41:15;7.90;1.00
1391;DHT22;690;51.454;7.194;2024-02-21T09:43:43;7.90;1.00
1391;DHT22;690;51.454;7.194;2024-02-21T09:46:15;7.80;1.00
1391;DHT22;690;51.454;7.194;2024-02-21T09:49:01;7.80;1.00
1391;DHT22;690;51.454;7.194;2024-02-21T09:51:30;7.90;1.00
1391;DHT22;690;51.454;7.194;2024-02-21T09:53:59;7.90;1.00
1391;DHT22;690;51.454;7.194;2024-02-21T09:56:27;7.90;1.00
1391;DHT22;690;51.454;7.194;2024-02-21T09:58:54;7.90;1.00
1391;DHT22;690;51.454;7.194;2024-02-21T10:01:21;7.90;1.00
1391;DHT22;690;51.454;7.194;2024-02-21T10:03:48;7.90;1.00
1391;DHT22;690;51.454;7.194;2024-02-21T10:06:16;7.90;1.00
1391;DHT22;690;51.454;7.194;2024-02-21T10:08:43;7.80;1.00
1391;DHT22;690;51.454;7.194;2024-02-21T10:11:10;7.80;1.00
1391;DHT22;690;51.454;7.194;2024-02-21T10:13:37;7.80;1.00
1391;DHT22;690;51.454;7.194;2024-02-21T10:16:05;7.80;1.00
1391;DHT22;690;51.454;7.194;2024-02-21T10:18:32;7.90;1.00
1391;DHT22;690;51.454;7.194;2024-02-21T10:21:02;8.10;1.00
1391;DHT22;690;51.454;7.194;2024-02-21T10:23:41;8.10;1.00
1391;DHT22;690;51.454;7.194;2024-02-21T10:26:08;8.20;1.00
1391;DHT22;690;51.454;7.194;2024-02-21T10:28:36;8.30;1.00
1391;DHT22;690;51.454;7.194;2024-02-21T10:31:03;8.30;1.00
1391;DHT22;690;51.454;7.194;2024-02-21T10:33:30;8.50;1.00
1391;DHT22;690;51.454;7.194;2024-02-21T10:36:06;8.60;1.00
1391;DHT22;690;51.454;7.194;2024-02-21T10:38:36;8.80;1.00
1391;DHT22;690;51.454;7.194;2024-02-21T10:41:04;8.90;1.00
1391;DHT22;690;51.454;7.194;2024-02-21T10:43:37;9.10;1.00
1391;DHT22;690;51.454;7.194;2024-02-21T10:46:06;9.20;1.00
1391;DHT22;690;51.454;7.194;2024-02-21T10:48:41;9.20;1.00
1391;DHT22;690;51.454;7.194;2024-02-21T10:51:14;9.30;1.00
1391;DHT22;690;51.454;7.194;2024-02-21T10:53:45;9.30;1.00
1391;DHT22;690;51.454;7.194;2024-02-21T10:56:22;9.30;1.00
1391;DHT22;690;51.454;7.194;2024-02-21T10:58:53;9.20;1.00
1391;DHT22;690;51.454;7.194;2024-02-21T11:01:21;9.20;1.00
1391;DHT22;690;51.454;7.194;2024-02-21T11:03:51;9.10;1.00
1391;DHT22;690;51.454;7.194;2024-02-21T11:06:20;9.10;1.00
1391;DHT22;690;51.454;7.194;2024-02-21T11:08:59;9.10;1.00
1391;DHT22;690;51.454;7.194;2024-02-21T11:11:27;9.20;1.00
1391;DHT22;690;51.454;7.194;2024-02-21T11:14:04;9.40;1.00
1391;DHT22;690;51.454;7.194;2024-02-21T11:16:35;9.50;1.00
1391;DHT22;690;51.454;7.194;2024-02-21T11:19:07;9.60;1.00
1391;DHT22;690;51.454;7.194;2024-02-21T11:21:34;9.70;1.00
1391;DHT22;690;51.454;7.194;2024-02-21T11:24:03;9.80;1.00
1391;DHT22;690;51.454;7.194;2024-02-21T11:26:31;9.90;1.00
1391;DHT22;690;51.454;7.194;2024-02-21T11:28:58;9.90;1.00
1391;DHT22;690;51.454;7.194;2024-02-21T11:31:38;10.00;1.00
1391;DHT22;690;51.454;7.194;2024-02-21T11:34:09;9.90;1.00
1391;DHT22;690;51.454;7.194;2024-02-21T11:36:36;10.00;1.00
1391;DHT22;690;51.454;7.194;2024-02-21T11:39:18;10.00;99.90
1391;DHT22;690;51.454;7.194;2024-02-21T11:41:47;10.00;99.90
1391;DHT22;690;51.454;7.194;2024-02-21T11:44:14;10.10;99.90
1391;DHT22;690;51.454;7.194;2024-02-21T11:46:41;10.30;99.90
1391;DHT22;690;51.454;7.194;2024-02-21T11:49:08;10.40;99.90
1391;DHT22;690;51.454;7.194;2024-02-21T11:51:35;10.50;99.90
1391;DHT22;690;51.454;7.194;2024-02-21T11:54:02;10.60;99.90
1391;DHT22;690;51.454;7.194;2024-02-21T11:56:31;10.50;99.90
1391;DHT22;690;51.454;7.194;2024-02-21T11:58:59;10.50;99.90
1391;DHT22;690;51.454;7.194;2024-02-21T12:01:27;10.50;99.90
1391;DHT22;690;51.454;7.194;2024-02-21T12:03:54;10.60;99.90
1391;DHT22;690;51.454;7.194;2024-02-21T12:06:24;10.50;99.90
1391;DHT22;690;51.454;7.194;2024-02-21T12:08:51;10.50;99.90
1391;DHT22;690;51.454;7.194;2024-02-21T12:11:22;10.50;99.90
1391;DHT22;690;51.454;7.194;2024-02-21T12:13:58;10.60;99.90
1391;DHT22;690;51.454;7.194;2024-02-21T12:16:27;10.70;99.90
1391;DHT22;690;51.454;7.194;2024-02-21T12:18:55;10.80;99.90
1391;DHT22;690;51.454;7.194;2024-02-21T12:21:24;10.80;99.90
1391;DHT22;690;51.454;7.194;2024-02-21T12:23:53;10.90;99.90
1391;DHT22;690;51.454;7.194;2024-02-21T12:26:20;11.00;99.90
1391;DHT22;690;51.454;7.194;2024-02-21T12:28:49;11.00;99.90
1391;DHT22;690;51.454;7.194;2024-02-21T12:31:16;11.10;99.90
1391;DHT22;690;51.454;7.194;2024-02-21T12:33:43;11.00;99.90
1391;DHT22;690;51.454;7.194;2024-02-21T12:36:10;11.00;99.90
1391;DHT22;690;51.454;7.194;2024-02-21T12:38:37;11.00;99.90
1391;DHT22;690;51.454;7.194;2024-02-21T12:41:04;11.00;99.90
1391;DHT22;690;51.454;7.194;2024-02-21T12:43:31;11.00;99.90
1391;DHT22;690;51.454;7.194;2024-02-21T12:46:00;11.00;99.90
1391;DHT22;690;51.454;7.194;2024-02-21T12:48:27;11.10;99.90
1391;DHT22;690;51.454;7.194;2024-02-21T12:50:54;11.20;99.90
1391;DHT22;690;51.454;7.194;2024-02-21T12:53:21;11.30;99.90
1391;DHT22;690;51.454;7.194;2024-02-21T12:55:48;11.40;99.90
1391;DHT22;690;51.454;7.194;2024-02-21T12:58:16;11.40;99.90
1391;DHT22;690;51.454;7.194;2024-02-21T13:00:43;11.30;99.90
1391;DHT22;690;51.454;7.194;2024-02-21T13:03:11;11.40;99.90
1391;DHT22;690;51.454;7.194;2024-02-21T13:05:38;11.40;99.90
1391;DHT22;690;51.454;7.194;2024-02-21T13:08:05;11.50;99.90
1391;DHT22;690;51.454;7.194;2024-02-21T13:10:32;11.50;99.90
1391;DHT22;690;51.454;7.194;2024-02-21T13:13:01;11.40;99.90
1391;DHT22;690;51.454;7.194;2024-02-21T13:15:27;11.40;99.90
1391;DHT22;690;51.454;7.194;2024-02-21T13:17:55;11.40;99.90
1391;DHT22;690;51.454;7.194;2024-02-21T13:20:23;11.50;99.90
1391;DHT22;690;51.454;7.194;2024-02-21T13:22:50;11.60;99.90
1391;DHT22;690;51.454;7.194;2024-02-21T13:25:17;11.60;99.90
1391;DHT22;690;51.454;7.194;2024-02-21T13:27:46;11.70;99.90
1391;DHT22;690;51.454;7.194;2024-02-21T13:30:14;11.80;99.90
1391;DHT22;690;51.454;7.194;2024-02-21T13:32:42;11.90;99.90
1391;DHT22;690;51.454;7.194;2024-02-21T13:35:12;11.90;99.90
1391;DHT22;690;51.454;7.194;2024-02-21T13:37:40;11.90;99.90
1391;DHT22;690;51.454;7.194;2024-02-21T13:40:12;11.90;99.90
1391;DHT22;690;51.454;7.194;2024-02-21T13:42:39;11.90;99.90
1391;DHT22;690;51.454;7.194;2024-02-21T13:45:07;11.90;99.90
1391;DHT22;690;51.454;7.194;2024-02-21T13:47:34;12.00;99.90
1391;DHT22;690;51.454;7.194;2024-02-21T13:50:02;11.90;99.90
1391;DHT22;690;51.454;7.194;2024-02-21T13:52:30;11.90;99.90
1391;DHT22;690;51.454;7.194;2024-02-21T13:54:58;11.90;99.90
1391;DHT22;690;51.454;7.194;2024-02-21T13:57:25;11.90;99.90
1391;DHT22;690;51.454;7.194;2024-02-21T13:59:52;11.90;99.90
1391;DHT22;690;51.454;7.194;2024-02-21T14:02:18;11.80;99.90
1391;DHT22;690;51.454;7.194;2024-02-21T14:04:46;11.80;99.90
1391;DHT22;690;51.454;7.194;2024-02-21T14:07:13;11.70;99.90
1391;DHT22;690;51.454;7.194;2024-02-21T14:09:40;11.60;99.90
1391;DHT22;690;51.454;7.194;2024-02-21T14:12:08;11.60;99.90
1391;DHT22;690;51.454;7.194;2024-02-21T14:14:35;11.60;99.90
1391;DHT22;690;51.454;7.194;2024-02-21T14:17:03;11.60;99.90
1391;DHT22;690;51.454;7.194;2024-02-21T14:19:30;11.60;99.90
1391;DHT22;690;51.454;7.194;2024-02-21T14:21:57;11.60;99.90
1391;DHT22;690;51.454;7.194;2024-02-21T14:24:24;11.50;99.90
1391;DHT22;690;51.454;7.194;2024-02-21T14:26:51;11.50;99.90
1391;DHT22;690;51.454;7.194;2024-02-21T14:29:19;11.50;99.90
1391;DHT22;690;51.454;7.194;2024-02-21T14:31:46;11.60;99.90
1391;DHT22;690;51.454;7.194;2024-02-21T14:34:13;11.60;99.90
1391;DHT22;690;51.454;7.194;2024-02-21T14:36:40;11.60;99.90
1391;DHT22;690;51.454;7.194;2024-02-21T14:39:07;11.60;99.90
1391;DHT22;690;51.454;7.194;2024-02-21T14:41:34;11.50;99.90
1391;DHT22;690;51.454;7.194;2024-02-21T14:44:02;11.50;99.90
1391;DHT22;690;51.454;7.194;2024-02-21T14:46:30;11.30;99.90
1391;DHT22;690;51.454;7.194;2024-02-21T14:48:57;11.30;99.90
1391;DHT22;690;51.454;7.194;2024-02-21T14:51:24;11.20;99.90
1391;DHT22;690;51.454;7.194;2024-02-21T14:53:51;11.20;99.90
1391;DHT22;690;51.454;7.194;2024-02-21T14:56:18;11.20;99.90
1391;DHT22;690;51.454;7.194;2024-02-21T14:58:44;11.10;99.90
1391;DHT22;690;51.454;7.194;2024-02-21T15:01:12;11.10;99.90
1391;DHT22;690;51.454;7.194;2024-02-21T15:03:42;11.00;99.90
1391;DHT22;690;51.454;7.194;2024-02-21T15:06:09;10.80;99.90
1391;DHT22;690;51.454;7.194;2024-02-21T15:08:37;10.70;99.90
1391;DHT22;690;51.454;7.194;2024-02-21T15:11:04;10.70;99.90
1391;DHT22;690;51.454;7.194;2024-02-21T15:13:31;10.70;99.90
1391;DHT22;690;51.454;7.194;2024-02-21T15:15:58;10.70;99.90
1391;DHT22;690;51.454;7.194;2024-02-21T15:18:25;10.70;99.90
1391;DHT22;690;51.454;7.194;2024-02-21T15:20:53;10.70;99.90
1391;DHT22;690;51.454;7.194;2024-02-21T15:23:20;10.50;99.90
1391;DHT22;690;51.454;7.194;2024-02-21T15:25:49;10.40;99.90
1391;DHT22;690;51.454;7.194;2024-02-21T15:28:16;10.30;99.90
1391;DHT22;690;51.454;7.194;2024-02-21T15:30:43;10.30;99.90
1391;DHT22;690;51.454;7.194;2024-02-21T15:33:10;10.20;99.90
1391;DHT22;690;51.454;7.194;2024-02-21T15:35:37;10.10;99.90
1391;DHT22;690;51.454;7.194;2024-02-21T15:38:05;10.10;99.90
1391;DHT22;690;51.454;7.194;2024-02-21T15:40:32;10.00;99.90
1391;DHT22;690;51.454;7.194;2024-02-21T15:43:01;10.00;99.90
1391;DHT22;690;51.454;7.194;2024-02-21T15:45:28;10.00;99.90
1391;DHT22;690;51.454;7.194;2024-02-21T15:47:55;10.00;99.90
1391;DHT22;690;51.454;7.194;2024-02-21T15:50:22;10.00;99.90
1391;DHT22;690;51.454;7.194;2024-02-21T15:52:48;9.90;99.90
1391;DHT22;690;51.454;7.194;2024-02-21T15:55:17;9.80;99.90
1391;DHT22;690;51.454;7.194;2024-02-21T15:57:45;9.80;99.90
1391;DHT22;690;51.454;7.194;2024-02-21T16:00:12;9.80;99.90
1391;DHT22;690;51.454;7.194;2024-02-21T16:02:40;9.70;99.90
1391;DHT22;690;51.454;7.194;2024-02-21T16:05:08;9.70;99.90
1391;DHT22;690;51.454;7.194;2024-02-21T16:07:36;9.60;99.90
1391;DHT22;690;51.454;7.194;2024-02-21T16:10:04;9.60;99.90
1391;DHT22;690;51.454;7.194;2024-02-21T16:12:32;9.60;99.90
1391;DHT22;690;51.454;7.194;2024-02-21T16:14:59;9.60;99.90
1391;DHT22;690;51.454;7.194;2024-02-21T16:17:26;9.50;99.90
1391;DHT22;690;51.454;7.194;2024-02-21T16:19:53;9.50;99.90
1391;DHT22;690;51.454;7.194;2024-02-21T16:22:21;9.50;99.90
1391;DHT22;690;51.454;7.194;2024-02-21T16:24:48;9.40;99.90
1391;DHT22;690;51.454;7.194;2024-02-21T16:27:15;9.40;99.90
1391;DHT22;690;51.454;7.194;2024-02-21T16:29:43;9.40;99.90
1391;DHT22;690;51.454;7.194;2024-02-21T16:32:10;9.40;99.90
1391;DHT22;690;51.454;7.194;2024-02-21T16:34:37;9.40;99.90
1391;DHT22;690;51.454;7.194;2024-02-21T16:37:05;9.30;99.90
1391;DHT22;690;51.454;7.194;2024-02-21T16:39:32;9.30;99.90
1391;DHT22;690;51.454;7.194;2024-02-21T16:41:59;9.30;99.90